Time;durP1;ratioP1;P1;durP2;ratioP2;P2;SDS_P1;SDS_P2;PMS_P1;PMS_P2;Temp;Humidity;BMP_temperature;BMP_pressure;BME280_temperature;BME280_humidity;BME280_pressure;Samples;Min_cycle;Max_cycle;Signal;HPM_P1;HPM_P2
2021/04/21 00:01:43;;;;;;;1.15;1.15;;;;;;;3.86;75.00;93359.16;5070691;28;20032;-38
2021/04/21 00:04:09;;;;;;;0.98;0.98;;;;;;;3.80;75.33;93364.66;5068924;28;20386;-39
2021/04/21 00:06:36;;;;;;;1.50;1.50;;;;;;;3.82;75.85;93364.16;5070650;28;20481;-38
2021/04/21 00:09:08;;;;;;;1.50;1.40;;;;;;;3.96;75.67;93363.06;5070223;28;20031;-39
2021/04/21 00:11:34;;;;;;;1.70;1.60;;;;;;;3.79;75.95;93365.16;5070398;28;20024;-38
2021/04/21 00:13:59;;;;;;;1.85;1.77;;;;;;;3.84;75.89;93358.91;5069334;28;20024;-38
2021/04/21 00:16:26;;;;;;;1.70;1.65;;;;;;;3.84;76.35;93359.66;5070225;28;20558;-39
2021/04/21 00:18:52;;;;;;;2.80;0.80;;;;;;;3.95;76.01;93369.03;5068906;28;20520;-39
2021/04/21 00:21:19;;;;;;;2.83;2.58;;;;;;;4.15;75.45;93363.16;5068926;28;20016;-39
2021/04/21 00:23:45;;;;;;;0.88;0.88;;;;;;;4.13;74.57;93365.66;5070370;28;20453;-39
2021/04/21 00:26:15;;;;;;;1.15;1.05;;;;;;;4.17;74.33;93360.66;5060882;28;20099;-39
2021/04/21 00:28:41;;;;;;;1.15;1.05;;;;;;;4.32;74.06;93361.03;5048769;28;20041;-39
2021/04/21 00:31:08;;;;;;;2.35;2.20;;;;;;;4.46;73.35;93363.38;5048921;28;20029;-39
2021/04/21 00:33:35;;;;;;;2.15;1.73;;;;;;;4.44;72.96;93352.22;5056364;28;20028;-39
2021/04/21 00:36:02;;;;;;;1.92;1.55;;;;;;;4.54;72.77;93356.09;5069107;28;20020;-39
2021/04/21 00:38:28;;;;;;;3.40;3.10;;;;;;;4.52;72.89;93369.56;5069124;28;20021;-39
2021/04/21 00:40:58;;;;;;;0.60;0.60;;;;;;;4.45;73.92;93364.63;5069110;28;20457;-39
2021/04/21 00:43:37;;;;;;;1.08;1.05;;;;;;;4.42;73.62;93365.66;5068856;28;20440;-38
2021/04/21 00:46:18;;;;;;;0.85;0.85;;;;;;;4.49;73.45;93367.81;5070352;28;20032;-38
2021/04/21 00:49:10;;;;;;;2.67;2.50;;;;;;;4.28;74.97;93366.78;5070200;28;20097;-38
2021/04/21 00:51:38;;;;;;;0.88;0.88;;;;;;;4.40;74.72;93372.88;5069126;28;20028;-39
2021/04/21 00:54:59;;;;;;;1.58;1.48;;;;;;;4.46;73.94;93365.38;5069873;28;20032;-39
2021/04/21 00:57:57;;;;;;;1.42;1.42;;;;;;;4.29;74.66;93373.72;5027544;28;20037;-38
2021/04/21 01:00:27;;;;;;;0.80;0.80;;;;;;;4.33;74.64;93376.91;5048002;28;20570;-39
2021/04/21 01:03:10;;;;;;;2.05;1.67;;;;;;;4.24;75.09;93377.25;5068850;28;20029;-40
2021/04/21 01:05:41;;;;;;;3.97;3.60;;;;;;;4.35;74.97;93368.22;5068602;28;20028;-39
2021/04/21 01:08:16;;;;;;;1.02;1.02;;;;;;;4.15;75.03;93366.63;5068566;28;20023;-39
2021/04/21 01:11:06;;;;;;;3.60;3.30;;;;;;;4.31;75.42;93371.22;5069986;28;20094;-39
2021/04/21 01:13:45;;;;;;;0.70;0.70;;;;;;;4.23;74.73;93361.34;5068613;28;20037;-39
2021/04/21 01:16:11;;;;;;;1.08;0.98;;;;;;;4.33;75.00;93360.50;5068638;28;20115;-38
2021/04/21 01:18:38;;;;;;;0.60;0.60;;;;;;;4.39;74.37;93363.22;5072489;28;20064;-38
2021/04/21 01:21:04;;;;;;;0.82;0.82;;;;;;;4.23;75.40;93364.09;5072490;28;20028;-39
2021/04/21 01:23:49;;;;;;;2.13;2.03;;;;;;;4.48;74.45;93363.59;5072351;28;20067;-39
2021/04/21 01:26:47;;;;;;;1.73;1.60;;;;;;;4.48;74.13;93362.88;5065099;28;20429;-38
2021/04/21 01:29:22;;;;;;;3.00;2.60;;;;;;;4.30;74.69;93363.53;5053219;28;20049;-38
2021/04/21 01:31:49;;;;;;;1.05;1.05;;;;;;;3.82;76.04;93359.44;5072135;28;20416;-38
2021/04/21 01:34:17;;;;;;;6.88;1.23;;;;;;;3.78;77.28;93371.88;5072010;28;20035;-38
2021/04/21 01:36:44;;;;;;;3.97;1.85;;;;;;;3.59;77.63;93371.75;5072230;28;20036;-38
2021/04/21 01:39:10;;;;;;;1.60;1.50;;;;;;;3.60;78.03;93375.22;5072081;28;20032;-38
2021/04/21 01:41:39;;;;;;;6.90;1.88;;;;;;;3.77;77.69;93370.38;5072135;28;20024;-38
2021/04/21 01:44:14;;;;;;;2.85;2.65;;;;;;;3.83;77.52;93376.56;5073011;28;20103;-39
2021/04/21 01:46:42;;;;;;;2.05;1.95;;;;;;;3.86;77.30;93375.53;5073262;28;20032;-39
2021/04/21 01:49:20;;;;;;;2.95;2.75;;;;;;;4.00;77.11;93382.66;5072018;28;20028;-39
2021/04/21 01:51:47;;;;;;;2.17;2.08;;;;;;;4.01;76.69;93372.44;5073196;28;20433;-39
2021/04/21 01:54:15;;;;;;;1.60;1.60;;;;;;;4.12;75.17;93375.84;5071559;28;20031;-39
2021/04/21 01:56:47;;;;;;;3.15;2.72;;;;;;;4.28;74.81;93374.97;5072761;28;20481;-39
2021/04/21 01:59:13;;;;;;;2.63;1.05;;;;;;;4.22;74.29;93373.53;5071764;28;20043;-38
2021/04/21 02:01:46;;;;;;;3.78;3.50;;;;;;;4.05;75.18;93373.66;5072974;28;20028;-39
2021/04/21 02:04:39;;;;;;;1.05;1.05;;;;;;;3.95;75.08;93369.78;5070888;28;20126;-38
2021/04/21 02:07:26;;;;;;;3.05;2.88;;;;;;;3.69;76.47;93375.66;5071926;28;20024;-39
2021/04/21 02:10:08;;;;;;;3.17;3.05;;;;;;;3.73;76.17;93375.38;5072563;28;20024;-38
2021/04/21 02:12:42;;;;;;;1.35;1.35;;;;;;;3.81;75.67;93379.78;5072837;28;20452;-38
2021/04/21 02:15:29;;;;;;;1.52;1.50;;;;;;;3.49;76.70;93367.09;5072394;28;20100;-39
2021/04/21 02:18:04;;;;;;;0.40;0.40;;;;;;;3.68;76.54;93376.16;5071517;28;20060;-38
2021/04/21 02:21:02;;;;;;;1.90;1.35;;;;;;;3.44;77.27;93384.25;5072563;28;20094;-39
2021/04/21 02:23:52;;;;;;;0.40;0.40;;;;;;;3.47;77.04;93381.25;5072611;28;20114;-38
2021/04/21 02:26:30;;;;;;;1.02;0.85;;;;;;;3.24;78.04;93382.59;5063654;28;20037;-38
2021/04/21 02:28:59;;;;;;;2.33;2.15;;;;;;;3.42;77.59;93381.28;5050274;28;20601;-38
2021/04/21 02:31:37;;;;;;;1.60;1.58;;;;;;;3.50;77.74;93382.22;5051211;28;20037;-39
2021/04/21 02:34:14;;;;;;;1.63;1.55;;;;;;;3.51;77.71;93383.72;5052095;28;20143;-38
2021/04/21 02:36:51;;;;;;;2.55;2.35;;;;;;;3.41;77.26;93388.72;5050863;28;20104;-39
2021/04/21 02:39:47;;;;;;;3.00;1.40;;;;;;;3.38;77.72;93395.19;5052225;28;20040;-39
2021/04/21 02:42:50;;;;;;;3.40;2.75;;;;;;;3.42;77.28;93386.75;5049467;28;20072;-39
2021/04/21 02:45:30;;;;;;;1.88;1.75;;;;;;;3.18;78.71;93386.59;5051814;28;20025;-39
2021/04/21 02:48:08;;;;;;;1.45;1.02;;;;;;;3.17;77.99;93383.13;5050733;28;20032;-38
2021/04/21 02:50:57;;;;;;;0.70;0.70;;;;;;;3.19;77.91;93386.09;5050600;28;20039;-38
2021/04/21 02:53:33;;;;;;;1.63;1.58;;;;;;;3.23;77.41;93391.31;5050708;28;20350;-38
2021/04/21 02:55:58;;;;;;;2.40;2.00;;;;;;;3.36;76.45;93389.47;5050454;28;20123;-38
2021/04/21 02:58:58;;;;;;;0.90;0.90;;;;;;;3.22;76.76;93397.97;5051817;28;20108;-39
2021/04/21 03:01:41;;;;;;;1.98;1.88;;;;;;;3.32;76.91;93388.25;5051469;28;20112;-38
2021/04/21 03:04:15;;;;;;;1.50;1.40;;;;;;;3.14;78.09;93397.03;5050314;28;20031;-38
2021/04/21 03:07:01;;;;;;;1.02;1.02;;;;;;;3.27;78.05;93399.97;5050208;28;20041;-38
2021/04/21 03:09:50;;;;;;;2.78;2.40;;;;;;;3.38;77.83;93397.19;5050305;28;20075;-39
2021/04/21 03:12:18;;;;;;;1.85;1.75;;;;;;;3.49;77.77;93400.59;5050169;28;20490;-38
2021/04/21 03:14:47;;;;;;;10.25;0.93;;;;;;;3.47;77.30;93411.25;5051509;28;20032;-39
2021/04/21 03:17:12;;;;;;;0.40;0.40;;;;;;;3.55;76.24;93406.03;5050085;28;20025;-38
2021/04/21 03:19:49;;;;;;;3.03;1.98;;;;;;;3.41;76.98;93415.25;5051388;28;20037;-39
2021/04/21 03:22:15;;;;;;;2.63;1.63;;;;;;;3.29;77.18;93400.19;5055788;28;20409;-38
2021/04/21 03:25:07;;;;;;;3.40;3.20;;;;;;;3.21;77.29;93412.84;5070103;28;20177;-38
2021/04/21 03:27:33;;;;;;;2.65;2.47;;;;;;;3.23;77.45;93407.66;5051776;28;20053;-39
2021/04/21 03:30:03;;;;;;;1.48;1.48;;;;;;;3.34;77.32;93415.78;5050069;28;20021;-38
2021/04/21 03:32:33;;;;;;;1.80;1.70;;;;;;;2.98;77.35;93404.03;5049799;28;20170;-39
2021/04/21 03:34:59;;;;;;;1.50;1.48;;;;;;;2.80;78.62;93410.00;5050849;28;20547;-39
2021/04/21 03:37:49;;;;;;;1.42;1.35;;;;;;;3.03;77.91;93414.19;5050861;28;20039;-38
2021/04/21 03:40:16;;;;;;;3.33;3.10;;;;;;;3.10;77.25;93418.38;5050335;28;20139;-40
2021/04/21 03:42:43;;;;;;;0.95;0.95;;;;;;;3.08;76.86;93414.16;5050995;28;20031;-38
2021/04/21 03:45:09;;;;;;;2.42;2.33;;;;;;;3.12;76.47;93413.16;5050872;28;20048;-38
2021/04/21 03:47:35;;;;;;;2.92;2.72;;;;;;;3.02;77.19;93421.63;5051054;28;20102;-38
2021/04/21 03:50:04;;;;;;;3.45;3.25;;;;;;;2.86;78.12;93427.09;5049749;28;20521;-39
2021/04/21 03:52:32;;;;;;;4.80;4.35;;;;;;;2.69;78.26;93432.59;5050537;28;20025;-38
2021/04/21 03:54:59;;;;;;;5.87;5.37;;;;;;;2.79;78.25;93431.09;5050519;28;20114;-38
2021/04/21 03:57:25;;;;;;;4.38;3.90;;;;;;;2.79;77.90;93435.81;5050513;28;20052;-38
2021/04/21 03:59:52;;;;;;;3.75;3.53;;;;;;;2.78;77.69;93432.34;5049249;28;20029;-38
2021/04/21 04:02:19;;;;;;;3.08;2.10;;;;;;;2.75;77.74;93429.88;5049286;28;20060;-39
2021/04/21 04:04:48;;;;;;;1.20;1.10;;;;;;;2.94;76.68;93439.00;5050699;28;20043;-38
2021/04/21 04:07:15;;;;;;;1.40;1.30;;;;;;;2.87;77.29;93448.44;5049208;28;20021;-37
2021/04/21 04:09:45;;;;;;;2.15;1.60;;;;;;;2.98;76.94;93437.50;5050499;28;20028;-38
2021/04/21 04:12:11;;;;;;;5.65;2.97;;;;;;;3.02;77.01;93442.69;5049470;28;20387;-38
2021/04/21 04:14:39;;;;;;;0.88;0.88;;;;;;;2.94;77.81;93445.19;5049410;28;20032;-38
2021/04/21 04:17:05;;;;;;;3.78;1.73;;;;;;;2.72;77.72;93425.41;5050526;28;20028;-39
2021/04/21 04:19:32;;;;;;;3.28;3.03;;;;;;;2.92;77.52;93452.38;5064167;28;20028;-39
2021/04/21 04:22:06;;;;;;;2.05;1.92;;;;;;;2.53;77.64;93452.44;5070506;28;20062;-38
2021/04/21 04:24:41;;;;;;;6.72;3.67;;;;;;;2.73;77.53;93460.34;5070478;28;20032;-39
2021/04/21 04:27:08;;;;;;;4.00;3.63;;;;;;;2.58;78.20;93451.69;5054435;28;20448;-38
2021/04/21 04:29:34;;;;;;;3.58;2.80;;;;;;;2.83;78.61;93452.66;5032307;28;20489;-38
2021/04/21 04:32:02;;;;;;;3.63;3.33;;;;;;;3.14;76.81;93457.03;5050075;28;20031;-39
2021/04/21 04:34:29;;;;;;;2.47;2.37;;;;;;;3.14;76.53;93459.78;5050239;28;20110;-39
2021/04/21 04:36:55;;;;;;;5.38;4.75;;;;;;;2.89;77.40;93467.00;5050257;28;20386;-38
2021/04/21 04:39:21;;;;;;;2.25;2.05;;;;;;;3.07;76.76;93458.31;5048743;28;20155;-38
2021/04/21 04:41:47;;;;;;;2.33;2.13;;;;;;;3.16;77.59;93458.03;5049183;28;20056;-38
2021/04/21 04:44:12;;;;;;;3.08;2.80;;;;;;;3.12;77.28;93462.25;5049913;28;20139;-38
2021/04/21 04:46:42;;;;;;;2.10;2.00;;;;;;;3.23;76.70;93465.69;5049058;28;20024;-38
2021/04/21 04:49:10;;;;;;;0.70;0.70;;;;;;;3.33;75.95;93461.44;5049090;28;20096;-38
2021/04/21 04:51:42;;;;;;;2.45;2.35;;;;;;;3.25;75.85;93463.19;5052384;28;20090;-38
2021/04/21 04:54:10;;;;;;;3.78;3.53;;;;;;;3.23;76.54;93465.69;5053916;28;20025;-39
2021/04/21 04:56:35;;;;;;;3.83;2.40;;;;;;;3.10;77.32;93470.94;5053908;28;20444;-38
2021/04/21 04:59:03;;;;;;;4.28;2.97;;;;;;;3.19;77.33;93472.63;5052466;28;20025;-38
2021/04/21 05:01:41;;;;;;;2.70;2.50;;;;;;;3.17;78.15;93473.16;5054089;28;20407;-39
2021/04/21 05:04:09;;;;;;;1.63;1.63;;;;;;;3.07;78.48;93475.38;5053811;28;20029;-39
2021/04/21 05:06:37;;;;;;;2.20;2.03;;;;;;;3.38;78.18;93485.22;5053718;28;20020;-38
2021/04/21 05:09:04;;;;;;;3.42;3.22;;;;;;;3.62;77.25;93487.38;5052342;28;20037;-39
2021/04/21 05:11:31;;;;;;;4.28;3.95;;;;;;;3.74;77.97;93486.84;5053592;28;20033;-39
2021/04/21 05:13:58;;;;;;;6.47;2.50;;;;;;;3.60;78.98;93482.41;5052701;28;20044;-39
2021/04/21 05:16:23;;;;;;;4.45;3.42;;;;;;;3.67;79.60;93506.47;5071493;28;20041;-39
2021/04/21 05:18:58;;;;;;;2.15;2.05;;;;;;;3.56;78.73;93483.94;5072120;28;20218;-38
2021/04/21 05:22:00;;;;;;;1.80;1.70;;;;;;;3.55;79.77;93498.84;5073368;28;20028;-39
2021/04/21 05:24:47;;;;;;;2.65;1.95;;;;;;;3.76;80.00;93505.44;5073567;28;20033;-39
2021/04/21 05:27:15;;;;;;;0.88;0.88;;;;;;;4.07;79.63;93499.56;5056521;28;20036;-39
2021/04/21 05:30:18;;;;;;;2.50;2.33;;;;;;;4.48;78.08;93500.28;5053353;28;20021;-39
2021/04/21 05:33:20;;;;;;;3.15;1.27;;;;;;;5.20;77.02;93501.66;5053159;28;20040;-39
2021/04/21 05:36:17;;;;;;;3.83;3.55;;;;;;;6.20;74.59;93495.78;5053486;28;20101;-39
2021/04/21 05:39:33;;;;;;;4.40;4.07;;;;;;;7.59;68.21;93497.78;5052959;28;20060;-39
2021/04/21 05:42:02;;;;;;;1.73;1.63;;;;;;;8.49;65.98;93502.94;5053118;28;20059;-39
2021/04/21 05:44:54;;;;;;;2.88;2.65;;;;;;;9.40;62.93;93501.78;5053095;28;20103;-39
2021/04/21 05:47:41;;;;;;;3.83;2.95;;;;;;;10.24;59.83;93501.06;5052887;28;20033;-39
2021/04/21 05:50:18;;;;;;;3.83;3.63;;;;;;;10.63;58.02;93502.66;5053222;28;20421;-41
2021/04/21 05:52:58;;;;;;;4.93;4.03;;;;;;;10.44;56.85;93502.22;5052928;28;20552;-41
2021/04/21 05:56:21;;;;;;;4.45;3.63;;;;;;;10.41;57.24;93498.53;5052834;28;20063;-39
2021/04/21 05:59:15;;;;;;;3.13;1.63;;;;;;;10.22;57.83;93500.84;5010558;28;20022;-40
2021/04/21 06:01:43;;;;;;;3.92;3.65;;;;;;;9.92;57.56;93500.66;5010462;28;20084;-39
2021/04/21 06:04:09;;;;;;;2.13;2.03;;;;;;;9.61;58.58;93502.50;5031249;28;20045;-39
2021/04/21 06:06:34;;;;;;;3.25;1.52;;;;;;;9.69;59.48;93508.06;5052657;28;20029;-39
2021/04/21 06:09:08;;;;;;;3.05;2.85;;;;;;;9.78;60.31;93510.31;5052773;28;20405;-39
2021/04/21 06:11:33;;;;;;;2.10;1.88;;;;;;;9.26;60.71;93505.16;5062768;28;20024;-40
2021/04/21 06:14:01;;;;;;;1.85;1.73;;;;;;;9.73;61.26;93509.19;5072382;28;20515;-39
2021/04/21 06:16:29;;;;;;;0.67;0.67;;;;;;;10.54;58.65;93506.69;5072705;28;20059;-39
2021/04/21 06:19:13;;;;;;;2.83;2.65;;;;;;;11.12;57.01;93510.66;5072247;28;20060;-40
2021/04/21 06:21:39;;;;;;;2.45;2.25;;;;;;;11.22;55.08;93503.31;5072617;28;20082;-40
2021/04/21 06:24:31;;;;;;;0.70;0.70;;;;;;;10.97;54.96;93505.13;5071045;28;20413;-40
2021/04/21 06:27:10;;;;;;;0.77;0.60;;;;;;;11.06;55.62;93499.06;5055631;28;20037;-39
2021/04/21 06:29:37;;;;;;;1.25;1.25;;;;;;;11.43;54.50;93510.13;5052200;28;20524;-39
2021/04/21 06:32:04;;;;;;;2.20;2.05;;;;;;;12.21;54.47;93515.06;5052173;28;20032;-41
2021/04/21 06:34:29;;;;;;;2.22;1.75;;;;;;;13.06;50.64;93515.63;5052326;28;20040;-40
2021/04/21 06:36:58;;;;;;;2.80;1.95;;;;;;;14.22;50.60;93512.84;5052305;28;20472;-40
2021/04/21 06:39:25;;;;;;;1.40;1.30;;;;;;;15.18;48.17;93509.47;5051912;28;20100;-40
2021/04/21 06:41:56;;;;;;;1.20;1.10;;;;;;;16.25;43.76;93512.03;5051946;28;20029;-42
2021/04/21 06:44:31;;;;;;;0.63;0.63;;;;;;;17.47;41.05;93510.34;5051928;28;20044;-40
2021/04/21 06:46:57;;;;;;;0.40;0.40;;;;;;;18.40;37.90;93509.75;5051736;28;20032;-41
2021/04/21 06:49:22;;;;;;;1.00;0.90;;;;;;;19.54;36.37;93507.31;5051733;28;20071;-43
2021/04/21 06:51:48;;;;;;;0.65;0.65;;;;;;;20.75;34.90;93511.75;5051768;28;20025;-43
2021/04/21 06:54:13;;;;;;;2.72;1.30;;;;;;;21.96;32.26;93515.69;5051947;28;20028;-42
2021/04/21 06:56:39;;;;;;;1.35;1.08;;;;;;;23.14;29.98;93515.41;5050526;28;20029;-42
2021/04/21 06:59:05;;;;;;;0.35;0.35;;;;;;;24.18;28.65;93516.09;5051419;28;20017;-40
2021/04/21 07:01:31;;;;;;;1.10;0.95;;;;;;;24.86;27.01;93513.47;5051856;28;20031;-41
2021/04/21 07:04:15;;;;;;;1.45;1.13;;;;;;;25.53;25.73;93517.66;5051319;28;20025;-41
2021/04/21 07:06:42;;;;;;;0.68;0.65;;;;;;;25.96;24.28;93499.50;5052644;28;20028;-41
2021/04/21 07:09:21;;;;;;;1.40;1.30;;;;;;;26.53;23.91;93517.19;5071389;28;20536;-43
2021/04/21 07:11:55;;;;;;;2.72;1.27;;;;;;;26.82;22.88;93507.63;5071733;28;20093;-46
2021/04/21 07:14:21;;;;;;;0.80;0.80;;;;;;;27.25;23.27;93506.94;5070444;28;20024;-41
2021/04/21 07:16:54;;;;;;;1.10;0.80;;;;;;;25.98;23.02;93505.97;5071484;28;20020;-42
2021/04/21 07:19:21;;;;;;;2.28;2.08;;;;;;;26.27;22.77;93490.78;5071192;28;20021;-43
2021/04/21 07:21:47;;;;;;;1.15;1.05;;;;;;;26.75;22.43;93503.84;5069993;28;20103;-43
2021/04/21 07:24:15;;;;;;;1.13;1.02;;;;;;;26.99;22.89;93506.78;5071357;28;20091;-44
2021/04/21 07:26:42;;;;;;;1.33;1.20;;;;;;;26.71;21.93;93508.63;5058979;28;20025;-43
2021/04/21 07:29:09;;;;;;;0.22;0.22;;;;;;;27.55;22.50;93514.38;5050902;28;20524;-43
2021/04/21 07:31:36;;;;;;;0.77;0.77;;;;;;;27.29;22.11;93513.47;5050993;28;20025;-43
2021/04/21 07:34:02;;;;;;;1.27;0.82;;;;;;;25.73;22.72;93514.88;5051235;28;20059;-43
2021/04/21 07:36:27;;;;;;;1.10;1.00;;;;;;;25.11;24.23;93501.78;5050897;28;20071;-42
2021/04/21 07:38:54;;;;;;;0.82;0.82;;;;;;;25.99;23.57;93512.34;5051044;28;20025;-42
2021/04/21 07:41:39;;;;;;;0.82;0.63;;;;;;;26.83;22.36;93515.47;5051099;28;20032;-42
2021/04/21 07:44:24;;;;;;;1.13;0.85;;;;;;;25.74;22.36;93512.78;5051104;28;20039;-46
2021/04/21 07:47:13;;;;;;;1.80;1.48;;;;;;;24.82;24.99;93521.75;5049554;28;20060;-41
2021/04/21 07:49:40;;;;;;;1.13;1.00;;;;;;;25.72;23.68;93516.28;5045132;28;20029;-42
2021/04/21 07:52:07;;;;;;;0.57;0.57;;;;;;;25.69;23.00;93519.66;5050635;28;20060;-45
2021/04/21 07:54:33;;;;;;;0.25;0.20;;;;;;;25.97;23.34;93520.75;5050673;28;20021;-46
2021/04/21 07:57:06;;;;;;;3.00;0.50;;;;;;;26.40;22.78;93525.94;5050553;28;20051;-42
2021/04/21 07:59:39;;;;;;;0.20;0.20;;;;;;;26.84;22.04;93525.44;5050743;28;20031;-42
2021/04/21 08:02:12;;;;;;;0.98;0.57;;;;;;;27.71;21.65;93531.19;5050575;28;20520;-43
2021/04/21 08:04:57;;;;;;;1.13;1.08;;;;;;;27.77;21.44;93537.03;5064151;28;20551;-43
2021/04/21 08:07:32;;;;;;;0.95;0.88;;;;;;;27.96;20.54;93527.00;5070385;28;20031;-42
2021/04/21 08:10:00;;;;;;;1.00;0.82;;;;;;;25.72;21.41;93521.94;5070792;28;20074;-45
2021/04/21 08:12:28;;;;;;;1.08;0.80;;;;;;;27.24;21.56;93522.53;5070622;28;20032;-41
2021/04/21 08:15:01;;;;;;;0.43;0.33;;;;;;;27.90;20.36;93519.00;5070400;28;20078;-45
2021/04/21 08:17:27;;;;;;;0.55;0.40;;;;;;;27.52;19.97;93517.81;5070582;28;20024;-45
2021/04/21 08:19:55;;;;;;;0.45;0.45;;;;;;;28.10;21.13;93516.81;5070463;28;20029;-44
2021/04/21 08:22:26;;;;;;;0.60;0.60;;;;;;;28.60;19.61;93522.53;5070546;28;20017;-44
2021/04/21 08:24:53;;;;;;;0.28;0.28;;;;;;;28.47;19.35;93507.22;5069904;28;20405;-43
2021/04/21 08:27:19;;;;;;;1.45;0.85;;;;;;;28.73;19.85;93515.78;5052272;28;20080;-47
2021/04/21 08:29:46;;;;;;;0.70;0.60;;;;;;;29.29;18.84;93510.91;5050137;28;20035;-41
2021/04/21 08:32:18;;;;;;;0.63;0.40;;;;;;;28.95;19.50;93514.28;5050013;28;20074;-44
2021/04/21 08:34:45;;;;;;;0.90;0.90;;;;;;;28.97;18.76;93513.59;5050281;28;20021;-49
2021/04/21 08:37:10;;;;;;;0.95;0.95;;;;;;;28.82;19.69;93529.56;5049987;28;20189;-42
2021/04/21 08:39:37;;;;;;;0.82;0.82;;;;;;;28.87;19.33;93521.88;5050256;28;20033;-44
2021/04/21 08:42:04;;;;;;;0.90;0.90;;;;;;;29.25;18.76;93528.59;5050252;28;20464;-42
2021/04/21 08:44:32;;;;;;;1.27;1.17;;;;;;;28.28;19.65;93525.16;5048537;28;20033;-42
2021/04/21 08:46:58;;;;;;;;;;;;;;;27.89;19.46;93526.06;5050421;28;20017;-42
2021/04/21 08:49:24;;;;;;;0.25;0.25;;;;;;;28.46;18.88;93522.81;5049795;28;19909;-43
2021/04/21 08:51:51;;;;;;;0.30;0.30;;;;;;;28.23;19.28;93524.31;5049093;28;20114;-44
2021/04/21 08:54:19;;;;;;;0.28;0.28;;;;;;;28.81;18.80;93521.69;5048671;28;20099;-43
2021/04/21 08:56:44;;;;;;;0.22;0.20;;;;;;;29.23;18.31;93515.06;5050123;28;20036;-43
2021/04/21 08:59:12;;;;;;;1.08;0.75;;;;;;;29.51;17.97;93515.03;5050798;28;20017;-42
2021/04/21 09:01:37;;;;;;;0.43;0.43;;;;;;;29.54;17.80;93507.97;5070094;28;20020;-43
2021/04/21 09:04:03;;;;;;;0.20;0.20;;;;;;;29.94;16.91;93496.84;5068660;28;20432;-41
2021/04/21 09:06:28;;;;;;;0.70;0.40;;;;;;;29.26;18.13;93504.44;5070436;28;20040;-43
2021/04/21 09:08:55;;;;;;;0.73;0.50;;;;;;;29.51;18.14;93500.81;5070026;28;20035;-42
2021/04/21 09:11:22;;;;;;;0.35;0.35;;;;;;;28.22;18.01;93497.28;5069753;28;20024;-44
2021/04/21 09:13:48;;;;;;;0.40;0.30;;;;;;;28.99;17.86;93500.19;5070039;28;20044;-42
2021/04/21 09:16:13;;;;;;;0.30;0.30;;;;;;;29.68;16.19;93496.94;5069701;28;20566;-43
2021/04/21 09:18:39;;;;;;;0.40;0.40;;;;;;;29.59;16.55;93491.72;5069611;28;20035;-46
2021/04/21 09:21:06;;;;;;;0.28;0.28;;;;;;;28.77;15.56;93493.91;5069894;28;20020;-44
2021/04/21 09:23:41;;;;;;;0.25;0.25;;;;;;;28.08;18.38;93479.13;5069605;28;20490;-43
2021/04/21 09:26:20;;;;;;;0.10;0.10;;;;;;;28.79;16.85;93481.84;5069131;28;20561;-43
2021/04/21 09:28:48;;;;;;;0.13;0.13;;;;;;;28.94;17.01;93484.41;5069437;28;20076;-42
2021/04/21 09:31:18;;;;;;;0.40;0.40;;;;;;;29.38;16.09;93478.41;5069811;28;20102;-43
2021/04/21 09:33:45;;;;;;;0.25;0.25;;;;;;;29.60;16.27;93459.78;5069734;28;20201;-43
2021/04/21 09:36:11;;;;;;;0.30;0.30;;;;;;;28.59;17.17;93478.47;5069798;28;20021;-42
2021/04/21 09:38:37;;;;;;;0.55;0.55;;;;;;;29.02;16.28;93478.91;5072028;28;20459;-42
2021/04/21 09:41:20;;;;;;;0.20;0.20;;;;;;;29.40;16.55;93475.63;5073091;28;20043;-42
2021/04/21 09:43:46;;;;;;;0.15;0.15;;;;;;;29.61;16.18;93478.28;5072168;28;20021;-43
2021/04/21 09:46:15;;;;;;;0.30;0.30;;;;;;;29.40;16.73;93464.25;5071860;28;20043;-44
2021/04/21 09:48:43;;;;;;;0.50;0.50;;;;;;;29.43;16.71;93457.22;5072918;28;20505;-42
2021/04/21 09:51:28;;;;;;;0.30;0.30;;;;;;;30.46;16.79;93466.69;5073248;28;20059;-41
2021/04/21 09:53:53;;;;;;;0.38;0.35;;;;;;;30.78;15.43;93468.69;5071626;28;20420;-44
2021/04/21 09:56:23;;;;;;;0.47;0.47;;;;;;;29.77;15.76;93467.31;5064435;28;20021;-44
2021/04/21 09:58:52;;;;;;;0.57;0.57;;;;;;;29.45;16.48;93460.84;5052724;28;20116;-43
2021/04/21 10:01:32;;;;;;;0.32;0.20;;;;;;;28.45;16.82;93464.56;5053039;28;20029;-44
2021/04/21 10:04:16;;;;;;;0.13;0.13;;;;;;;28.35;16.32;93467.13;5052757;28;20032;-43
2021/04/21 10:06:55;;;;;;;0.50;0.40;;;;;;;28.58;16.50;93457.13;5052848;28;20103;-42
2021/04/21 10:09:28;;;;;;;0.15;0.15;;;;;;;29.06;17.70;93472.63;5052715;28;20013;-44
2021/04/21 10:12:17;;;;;;;0.52;0.40;;;;;;;29.63;16.11;93463.38;5051318;28;20032;-42
2021/04/21 10:15:02;;;;;;;0.10;0.10;;;;;;;29.48;16.44;93473.69;5052769;28;20025;-44
2021/04/21 10:17:30;;;;;;;0.20;0.20;;;;;;;29.15;16.21;93479.97;5052477;28;20021;-42
2021/04/21 10:19:57;;;;;;;0.73;0.25;;;;;;;29.10;15.75;93469.88;5052539;28;20023;-42
2021/04/21 10:22:23;;;;;;;0.70;0.60;;;;;;;27.52;17.08;93480.94;5051097;28;20036;-44
2021/04/21 10:24:48;;;;;;;0.10;0.10;;;;;;;26.83;18.66;93483.59;5051165;28;20025;-42
2021/04/21 10:27:17;;;;;;;0.68;0.68;;;;;;;25.77;20.64;93472.63;5051944;28;21222;-41
2021/04/21 10:29:42;;;;;;;0.57;0.57;;;;;;;27.05;20.72;93468.06;5052547;28;20086;-43
2021/04/21 10:32:08;;;;;;;0.32;0.30;;;;;;;26.73;17.65;93472.63;5052476;28;20032;-41
2021/04/21 10:34:34;;;;;;;0.10;0.10;;;;;;;27.59;17.98;93469.09;5052385;28;20556;-43
2021/04/21 10:37:00;;;;;;;0.43;0.35;;;;;;;27.26;19.24;93457.38;5051978;28;20021;-41
2021/04/21 10:39:36;;;;;;;0.50;0.50;;;;;;;27.44;18.02;93460.84;5052247;28;20035;-41
2021/04/21 10:42:12;;;;;;;0.40;0.38;;;;;;;26.99;17.92;93459.34;5052326;28;20098;-42
2021/04/21 10:44:43;;;;;;;0.20;0.20;;;;;;;26.18;18.69;93450.13;5052227;28;20075;-42
2021/04/21 10:47:13;;;;;;;0.17;0.17;;;;;;;26.06;18.14;93444.00;5052183;28;20044;-42
2021/04/21 10:49:52;;;;;;;0.50;0.35;;;;;;;26.20;18.85;93435.34;5051807;28;20021;-42
2021/04/21 10:52:22;;;;;;;0.22;0.22;;;;;;;23.44;19.80;93445.72;5057893;28;20515;-43
2021/04/21 10:54:50;;;;;;;0.50;0.50;;;;;;;24.43;20.62;93445.25;5071619;28;20032;-44
2021/04/21 10:57:21;;;;;;;0.25;0.15;;;;;;;24.22;20.24;93454.19;5071977;28;20032;-41
2021/04/21 11:00:06;;;;;;;0.47;0.47;;;;;;;23.51;20.37;93450.28;5071844;28;20044;-41
2021/04/21 11:02:40;;;;;;;0.75;0.73;;;;;;;23.83;21.82;93449.66;5071537;28;20090;-44
2021/04/21 11:05:11;;;;;;;0.50;0.50;;;;;;;23.53;22.55;93451.09;5071505;28;20024;-42
2021/04/21 11:07:43;;;;;;;0.65;0.65;;;;;;;24.61;23.60;93454.47;5071709;28;20024;-43
2021/04/21 11:10:30;;;;;;;1.75;1.02;;;;;;;25.24;19.57;93440.84;5071400;28;20024;-42
2021/04/21 11:12:55;;;;;;;2.78;0.55;;;;;;;24.35;19.87;93442.06;5071204;28;20074;-41
2021/04/21 11:15:39;;;;;;;0.22;0.20;;;;;;;24.01;21.62;93444.84;5071121;28;20108;-41
2021/04/21 11:18:08;;;;;;;0.10;0.10;;;;;;;22.67;22.83;93444.84;5071598;28;20025;-40
2021/04/21 11:20:45;;;;;;;1.00;0.57;;;;;;;22.02;25.77;93466.13;5071383;28;20103;-41
2021/04/21 11:23:58;;;;;;;0.10;0.10;;;;;;;22.71;25.62;93470.38;5071142;28;20032;-40
2021/04/21 11:26:27;;;;;;;0.52;0.52;;;;;;;22.53;25.64;93475.06;5061510;28;20120;-41
2021/04/21 11:29:13;;;;;;;;;;;;;;;22.87;26.18;93467.63;5051364;28;20075;-43
2021/04/21 11:31:42;;;;;;;0.30;0.30;;;;;;;23.05;23.29;93472.03;5050974;28;19931;-42
2021/04/21 11:34:19;;;;;;;0.60;0.57;;;;;;;22.63;22.05;93456.63;5051283;28;20033;-41
2021/04/21 11:36:57;;;;;;;0.20;0.20;;;;;;;21.87;24.16;93458.31;5050907;28;20056;-41
2021/04/21 11:39:41;;;;;;;0.82;0.82;;;;;;;21.58;25.99;93464.50;5050810;28;20033;-42
2021/04/21 11:42:16;;;;;;;4.60;1.75;;;;;;;22.09;25.68;93467.88;5050842;28;20115;-41
2021/04/21 11:44:55;;;;;;;0.32;0.32;;;;;;;22.50;23.54;93462.25;5050781;28;20518;-40
2021/04/21 11:47:45;;;;;;;0.22;0.22;;;;;;;22.20;22.89;93478.31;5050807;28;20036;-42
2021/04/21 11:50:17;;;;;;;0.65;0.50;;;;;;;21.83;22.28;93467.25;5070089;28;20505;-42
2021/04/21 11:53:12;;;;;;;0.32;0.32;;;;;;;21.83;21.88;93463.72;5070907;28;20036;-41
2021/04/21 11:55:55;;;;;;;0.20;0.15;;;;;;;21.96;22.15;93465.81;5070938;28;20408;-44
2021/04/21 11:58:31;;;;;;;0.40;0.40;;;;;;;22.14;22.69;93472.38;5070629;28;20028;-42
2021/04/21 12:01:02;;;;;;;0.10;0.10;;;;;;;21.91;22.61;93464.16;5069854;28;20066;-41
2021/04/21 12:03:38;;;;;;;0.47;0.45;;;;;;;21.66;23.72;93469.81;5070573;28;20051;-41
2021/04/21 12:06:06;;;;;;;0.43;0.43;;;;;;;21.34;24.00;93470.88;5070511;28;20111;-41
2021/04/21 12:08:37;;;;;;;0.40;0.40;;;;;;;21.03;24.99;93462.84;5070663;28;20027;-40